createdAt,value
2022-11-24T00:01:26.457Z,6.40
2022-11-24T00:04:00.742Z,6.40
2022-11-24T00:06:29.351Z,6.40
2022-11-24T00:08:57.015Z,6.40
2022-11-24T00:11:33.871Z,6.40
2022-11-24T00:14:01.907Z,6.40
2022-11-24T00:16:32.246Z,6.50
2022-11-24T00:19:02.182Z,6.50
2022-11-24T00:21:31.231Z,6.50
2022-11-24T00:23:58.677Z,6.50
2022-11-24T00:26:35.049Z,6.50
2022-11-24T00:29:06.481Z,6.50
2022-11-24T00:31:40.538Z,6.50
2022-11-24T00:34:13.088Z,6.50
2022-11-24T00:36:41.431Z,6.50
2022-11-24T00:39:14.968Z,6.60
2022-11-24T00:41:43.719Z,6.60
2022-11-24T00:44:10.622Z,6.60
2022-11-24T00:46:37.851Z,6.60
2022-11-24T00:49:08.450Z,6.60
2022-11-24T00:51:35.532Z,6.80
2022-11-24T00:54:02.837Z,6.60
2022-11-24T00:56:30.518Z,6.60
2022-11-24T00:58:57.408Z,6.60
2022-11-24T01:01:27.691Z,6.60
2022-11-24T01:03:56.035Z,6.60
2022-11-24T01:06:25.954Z,6.70
2022-11-24T01:08:53.660Z,6.70
2022-11-24T01:11:25.075Z,6.70
2022-11-24T01:13:57.407Z,6.70
2022-11-24T01:16:32.475Z,6.70
2022-11-24T01:19:00.296Z,6.60
2022-11-24T01:21:27.315Z,6.70
2022-11-24T01:23:54.443Z,6.70
2022-11-24T01:26:22.846Z,6.70
2022-11-24T01:28:55.439Z,6.70
2022-11-24T01:31:23.685Z,6.70
2022-11-24T01:33:50.850Z,6.70
2022-11-24T01:36:18.485Z,6.70
2022-11-24T01:38:45.425Z,6.70
2022-11-24T01:41:21.552Z,6.70
2022-11-24T01:43:49.722Z,6.70
2022-11-24T01:47:01.090Z,6.70
2022-11-24T01:49:41.894Z,6.60
2022-11-24T01:52:16.367Z,6.60
2022-11-24T01:54:55.031Z,6.60
2022-11-24T01:57:27.842Z,6.60
2022-11-24T02:00:04.210Z,6.60
2022-11-24T02:02:43.288Z,6.60
2022-11-24T02:05:43.505Z,6.60
2022-11-24T02:08:30.987Z,6.60
2022-11-24T02:10:58.109Z,6.60
2022-11-24T02:13:25.419Z,6.60
2022-11-24T02:15:54.251Z,6.60
2022-11-24T02:18:21.384Z,6.60
2022-11-24T02:20:48.485Z,6.50
2022-11-24T02:23:33.751Z,6.60
2022-11-24T02:26:31.685Z,6.60
2022-11-24T02:28:59.863Z,6.60
2022-11-24T02:31:26.825Z,6.60
2022-11-24T02:33:54.844Z,6.60
2022-11-24T02:36:21.974Z,6.60
2022-11-24T02:38:48.921Z,6.50
2022-11-24T02:41:20.571Z,6.50
2022-11-24T02:43:55.616Z,6.50
2022-11-24T02:46:22.984Z,6.50
2022-11-24T02:48:49.938Z,6.50
2022-11-24T02:51:17.801Z,6.50
2022-11-24T02:53:44.674Z,6.50
2022-11-24T02:56:12.802Z,6.50
2022-11-24T02:58:39.945Z,6.50
2022-11-24T03:01:07.200Z,6.50
2022-11-24T03:03:34.217Z,6.50
2022-11-24T03:06:01.350Z,6.50
2022-11-24T03:08:28.202Z,6.50
2022-11-24T03:10:55.579Z,6.50
2022-11-24T03:13:22.711Z,6.50
2022-11-24T03:15:49.733Z,6.50
2022-11-24T03:18:16.647Z,6.50
2022-11-24T03:20:44.367Z,6.50
2022-11-24T03:23:11.314Z,6.50
2022-11-24T03:25:38.578Z,6.50
2022-11-24T03:28:06.317Z,6.50
2022-11-24T03:30:33.315Z,6.50
2022-11-24T03:33:00.217Z,6.50
2022-11-24T03:35:27.465Z,6.50
2022-11-24T03:37:54.397Z,6.50
2022-11-24T03:40:21.391Z,6.50
2022-11-24T03:42:48.310Z,6.50
2022-11-24T03:45:45.382Z,6.50
2022-11-24T03:48:02.570Z,6.60
2022-11-24T03:50:29.486Z,6.50
2022-11-24T03:52:56.720Z,6.50
2022-11-24T03:55:24.071Z,6.40
2022-11-24T03:57:51.071Z,6.50
2022-11-24T04:00:18.393Z,6.40
2022-11-24T04:02:45.526Z,6.40
2022-11-24T04:05:12.462Z,6.40
2022-11-24T04:07:39.849Z,6.50
2022-11-24T04:10:08.054Z,6.40
2022-11-24T04:12:46.782Z,6.50
2022-11-24T04:15:19.160Z,6.40
2022-11-24T04:17:48.015Z,6.40
2022-11-24T04:20:16.343Z,6.40
2022-11-24T04:22:44.151Z,6.40
2022-11-24T04:25:11.665Z,6.40
2022-11-24T04:27:39.248Z,6.40
2022-11-24T04:30:07.969Z,6.40
2022-11-24T04:32:35.688Z,6.40
2022-11-24T04:35:03.615Z,6.40
2022-11-24T04:37:30.785Z,6.40
2022-11-24T04:39:57.675Z,6.30
2022-11-24T04:42:24.637Z,6.30
2022-11-24T04:44:51.685Z,6.30
2022-11-24T04:47:23.225Z,6.30
2022-11-24T04:49:51.286Z,6.30
2022-11-24T04:52:21.211Z,6.30
2022-11-24T04:54:48.828Z,6.20
2022-11-24T04:57:25.709Z,6.20
2022-11-24T04:59:54.457Z,6.20
2022-11-24T05:02:22.346Z,6.20
2022-11-24T05:04:49.753Z,6.20
2022-11-24T05:07:19.315Z,6.20
2022-11-24T05:10:06.587Z,6.20
2022-11-24T05:12:33.685Z,6.20
2022-11-24T05:15:02.479Z,6.20
2022-11-24T05:17:32.746Z,6.20
2022-11-24T05:19:59.847Z,6.20
2022-11-24T05:22:29.274Z,6.10
2022-11-24T05:24:56.902Z,6.10
2022-11-24T05:27:24.070Z,6.10
2022-11-24T05:29:51.043Z,6.10
2022-11-24T05:32:18.217Z,6.00
2022-11-24T05:34:45.138Z,6.00
2022-11-24T05:37:12.088Z,6.00
2022-11-24T05:39:39.078Z,6.00
2022-11-24T05:42:25.817Z,6.00
2022-11-24T05:44:53.493Z,6.00
2022-11-24T05:47:21.011Z,6.10
2022-11-24T05:49:48.150Z,6.10
2022-11-24T05:52:15.859Z,6.10
2022-11-24T05:54:42.979Z,6.10
2022-11-24T05:57:09.876Z,6.10
2022-11-24T05:59:37.336Z,6.10
2022-11-24T06:02:04.575Z,6.10
2022-11-24T06:04:32.397Z,6.10
2022-11-24T06:06:59.858Z,6.10
2022-11-24T06:09:26.975Z,6.10
2022-11-24T06:11:53.813Z,6.10
2022-11-24T06:14:21.132Z,6.10
2022-11-24T06:16:48.012Z,6.10
2022-11-24T06:19:15.298Z,6.10
2022-11-24T06:21:42.268Z,6.10
2022-11-24T06:24:09.316Z,6.10
2022-11-24T06:26:36.165Z,6.10
2022-11-24T06:29:03.457Z,6.10
2022-11-24T06:31:30.412Z,6.10
2022-11-24T06:33:57.481Z,6.10
2022-11-24T06:36:25.597Z,6.10
2022-11-24T06:38:52.948Z,6.10
2022-11-24T06:41:20.054Z,6.10
2022-11-24T06:43:48.127Z,6.10
2022-11-24T06:46:15.514Z,6.10
2022-11-24T06:48:42.529Z,6.10
2022-11-24T06:51:13.282Z,6.10
2022-11-24T06:53:41.037Z,6.10
2022-11-24T06:56:16.131Z,6.10
2022-11-24T06:58:50.516Z,6.10
2022-11-24T07:01:21.479Z,6.10
2022-11-24T07:03:50.500Z,6.10
2022-11-24T07:06:18.999Z,6.20
2022-11-24T07:08:46.339Z,6.20
2022-11-24T07:11:17.447Z,6.20
2022-11-24T07:13:45.866Z,6.20
2022-11-24T07:16:22.860Z,6.20
2022-11-24T07:18:52.287Z,6.20
2022-11-24T07:21:20.887Z,6.20
2022-11-24T07:23:53.092Z,6.20
2022-11-24T07:26:20.827Z,6.20
2022-11-24T07:28:47.912Z,6.20
2022-11-24T07:31:21.526Z,6.20
2022-11-24T07:33:50.401Z,6.20
2022-11-24T07:36:17.554Z,6.30
2022-11-24T07:38:45.450Z,6.30
2022-11-24T07:41:14.571Z,6.30
2022-11-24T07:43:41.961Z,6.30
2022-11-24T07:46:14.054Z,6.30
2022-11-24T07:48:41.353Z,6.40
2022-11-24T07:51:09.645Z,6.40
2022-11-24T07:53:37.780Z,6.40
2022-11-24T07:56:06.318Z,6.40
2022-11-24T07:58:36.485Z,6.40
2022-11-24T08:01:18.288Z,6.40
2022-11-24T08:03:46.887Z,6.50
2022-11-24T08:06:38.645Z,6.50
2022-11-24T08:09:02.379Z,6.60
2022-11-24T08:11:31.506Z,6.60
2022-11-24T08:13:58.856Z,6.60
2022-11-24T08:16:25.909Z,6.70
2022-11-24T08:18:55.624Z,6.70
2022-11-24T08:21:24.990Z,6.80
2022-11-24T08:23:57.189Z,6.80
2022-11-24T08:26:25.745Z,6.80
2022-11-24T08:28:58.212Z,6.80
2022-11-24T08:31:32.622Z,6.90
2022-11-24T08:34:00.744Z,6.90
2022-11-24T08:36:27.872Z,6.90
2022-11-24T08:38:57.290Z,6.90
2022-11-24T08:41:26.234Z,6.90
2022-11-24T08:43:54.781Z,6.90
2022-11-24T08:46:22.169Z,7.00
2022-11-24T08:48:51.676Z,7.00
2022-11-24T08:51:23.035Z,7.00
2022-11-24T08:54:00.374Z,7.00
2022-11-24T08:56:29.911Z,7.10
2022-11-24T08:58:57.491Z,7.10
2022-11-24T09:01:25.517Z,7.10
2022-11-24T09:03:52.744Z,7.20
2022-11-24T09:06:25.057Z,7.20
2022-11-24T09:08:54.734Z,7.20
2022-11-24T09:11:22.241Z,7.30
2022-11-24T09:13:49.797Z,7.30
2022-11-24T09:16:24.658Z,7.30
2022-11-24T09:18:58.076Z,7.30
2022-11-24T09:21:25.449Z,7.40
2022-11-24T09:23:54.123Z,7.40
2022-11-24T09:26:30.778Z,7.40
2022-11-24T09:28:58.682Z,7.50
2022-11-24T09:31:29.137Z,7.50
2022-11-24T09:33:57.115Z,7.50
2022-11-24T09:36:24.826Z,7.50
2022-11-24T09:38:52.296Z,7.60
2022-11-24T09:42:07.859Z,7.60
2022-11-24T09:44:46.812Z,7.60
2022-11-24T09:47:37.721Z,7.80
2022-11-24T09:50:13.744Z,7.80
2022-11-24T09:53:03.991Z,7.90
2022-11-24T09:55:43.642Z,7.90
2022-11-24T09:58:48.567Z,8.00
2022-11-24T10:01:24.952Z,8.10
2022-11-24T10:03:53.802Z,8.10
2022-11-24T10:06:26.498Z,8.20
2022-11-24T10:09:36.589Z,8.30
2022-11-24T10:12:28.221Z,8.30
2022-11-24T10:15:25.740Z,8.40
2022-11-24T10:18:19.905Z,8.50
2022-11-24T10:21:14.605Z,8.60
2022-11-24T10:24:33.880Z,8.70
2022-11-24T10:27:20.312Z,8.70
2022-11-24T10:29:52.112Z,8.80
2022-11-24T10:32:26.408Z,8.90
2022-11-24T10:34:55.344Z,8.90
2022-11-24T10:37:41.168Z,9.00
2022-11-24T10:40:48.577Z,9.00
2022-11-24T10:43:11.262Z,9.20
2022-11-24T10:45:39.624Z,9.30
2022-11-24T10:48:19.142Z,9.30
2022-11-24T10:50:46.180Z,9.60
2022-11-24T10:53:29.778Z,9.80
2022-11-24T10:55:56.667Z,10.00
2022-11-24T10:58:34.301Z,10.20
2022-11-24T11:01:13.914Z,10.50
2022-11-24T11:03:52.468Z,10.60
2022-11-24T11:06:31.503Z,10.70
2022-11-24T11:09:07.394Z,10.90
2022-11-24T11:11:39.944Z,10.90
2022-11-24T11:14:10.540Z,11.20
2022-11-24T11:16:56.166Z,11.20
2022-11-24T11:19:56.956Z,11.30
2022-11-24T11:22:30.116Z,11.40
2022-11-24T11:25:24.907Z,11.50
2022-11-24T11:28:23.679Z,11.60
2022-11-24T11:31:19.672Z,11.70
2022-11-24T11:34:15.976Z,11.80
2022-11-24T11:36:51.821Z,11.80
2022-11-24T11:39:25.612Z,11.80
2022-11-24T11:42:53.793Z,12.00
2022-11-24T11:45:24.453Z,12.10
2022-11-24T11:48:03.362Z,12.20
2022-11-24T11:53:47.161Z,12.40
2022-11-24T11:56:40.457Z,12.50
2022-11-24T11:59:31.650Z,12.50
2022-11-24T12:02:29.112Z,12.50
2022-11-24T12:05:10.755Z,12.50
2022-11-24T12:08:16.001Z,12.40
2022-11-24T12:11:22.230Z,12.40
2022-11-24T12:14:26.248Z,12.30
2022-11-24T12:17:14.945Z,12.20
2022-11-24T12:20:03.064Z,12.20
2022-11-24T12:22:42.926Z,12.20
2022-11-24T12:25:26.787Z,12.40
2022-11-24T12:28:18.269Z,12.60
2022-11-24T12:31:13.957Z,12.90
2022-11-24T12:34:01.722Z,13.40
2022-11-24T12:37:21.899Z,13.90
2022-11-24T12:40:16.303Z,14.40
2022-11-24T12:43:13.329Z,14.90
2022-11-24T12:45:53.353Z,15.30
2022-11-24T12:49:00.241Z,15.60
2022-11-24T12:51:36.221Z,16.00
2022-11-24T12:54:08.660Z,16.10
2022-11-24T12:56:50.930Z,16.40
2022-11-24T12:59:45.578Z,16.50
2022-11-24T13:02:43.114Z,16.60
2022-11-24T13:06:22.019Z,16.60
2022-11-24T13:08:50.006Z,16.40
2022-11-24T13:11:23.341Z,16.20
2022-11-24T13:14:22.561Z,16.10
2022-11-24T13:19:45.047Z,15.60
2022-11-24T13:22:26.052Z,15.50
2022-11-24T13:25:31.511Z,15.20
2022-11-24T13:28:04.299Z,15.00
2022-11-24T13:30:34.339Z,14.80
2022-11-24T13:33:16.772Z,14.50
2022-11-24T13:36:02.676Z,14.50
2022-11-24T13:39:03.642Z,14.40
2022-11-24T13:41:33.468Z,14.20
2022-11-24T13:44:15.539Z,14.10
2022-11-24T13:47:06.899Z,13.90
2022-11-24T13:49:42.717Z,13.80
2022-11-24T13:52:38.662Z,13.60
2022-11-24T13:55:12.009Z,13.50
2022-11-24T13:57:50.677Z,13.30
2022-11-24T14:01:08.756Z,13.20
2022-11-24T14:06:53.423Z,12.90
2022-11-24T14:09:27.153Z,12.70
2022-11-24T14:12:00.598Z,12.50
2022-11-24T14:14:28.592Z,12.40
2022-11-24T14:17:15.907Z,12.20
2022-11-24T14:19:48.981Z,12.10
2022-11-24T14:22:31.413Z,12.00
2022-11-24T14:25:00.949Z,11.80
2022-11-24T14:27:38.969Z,11.80
2022-11-24T14:30:14.643Z,11.50
2022-11-24T14:32:53.794Z,11.40
2022-11-24T14:35:26.709Z,11.20
2022-11-24T14:37:54.106Z,11.10
2022-11-24T14:40:50.317Z,11.00
2022-11-24T14:43:21.524Z,10.90
2022-11-24T14:45:56.523Z,10.80
2022-11-24T14:48:29.153Z,10.70
2022-11-24T14:51:29.415Z,10.60
2022-11-24T14:54:02.340Z,10.50
2022-11-24T14:56:36.589Z,10.60
2022-11-24T14:59:20.996Z,10.40
2022-11-24T15:01:48.080Z,10.30
2022-11-24T15:07:26.831Z,10.10
2022-11-24T15:10:00.307Z,10.10
2022-11-24T15:12:41.614Z,10.00
2022-11-24T15:15:15.190Z,10.00
2022-11-24T15:18:01.584Z,9.90
2022-11-24T15:20:42.427Z,9.80
2022-11-24T15:23:31.840Z,9.80
2022-11-24T15:26:01.724Z,9.80
2022-11-24T15:28:31.218Z,9.70
2022-11-24T15:31:25.218Z,9.60
2022-11-24T15:33:52.202Z,9.60
2022-11-24T15:36:20.676Z,9.60
2022-11-24T15:38:48.663Z,9.50
2022-11-24T15:41:20.811Z,9.50
2022-11-24T15:43:48.333Z,9.50
2022-11-24T15:46:16.046Z,9.50
2022-11-24T15:48:43.089Z,9.40
2022-11-24T15:51:15.183Z,9.40
2022-11-24T15:53:48.534Z,9.40
2022-11-24T15:56:42.100Z,9.30
2022-11-24T15:59:20.674Z,9.30
2022-11-24T16:01:49.852Z,9.30
2022-11-24T16:04:17.034Z,9.20
2022-11-24T16:06:44.152Z,9.20
2022-11-24T16:09:15.191Z,9.20
2022-11-24T16:11:42.182Z,9.20
2022-11-24T16:14:09.036Z,9.10
2022-11-24T16:16:36.333Z,9.10
2022-11-24T16:19:03.623Z,9.10
2022-11-24T16:21:30.725Z,9.10
2022-11-24T16:23:57.670Z,9.10
2022-11-24T16:26:24.585Z,9.10
2022-11-24T16:28:51.498Z,9.10
2022-11-24T16:31:19.848Z,9.00
2022-11-24T16:33:46.996Z,9.10
2022-11-24T16:36:14.534Z,9.10
2022-11-24T16:38:41.712Z,9.00
2022-11-24T16:41:10.339Z,9.10
2022-11-24T16:43:37.909Z,9.00
2022-11-24T16:46:24.566Z,9.00
2022-11-24T16:48:54.971Z,9.00
2022-11-24T16:51:23.770Z,9.10
2022-11-24T16:54:01.690Z,9.00
2022-11-24T16:56:30.082Z,9.00
2022-11-24T16:58:56.987Z,9.00
2022-11-24T17:01:26.128Z,9.00
2022-11-24T17:03:53.201Z,9.00
2022-11-24T17:06:20.219Z,9.10
2022-11-24T17:08:47.882Z,9.10
2022-11-24T17:11:22.498Z,9.10
2022-11-24T17:13:50.595Z,9.10
2022-11-24T17:16:23.196Z,9.10
2022-11-24T17:18:50.629Z,9.10
2022-11-24T17:21:20.739Z,9.00
2022-11-24T17:23:48.044Z,9.00
2022-11-24T17:26:17.308Z,9.00
2022-11-24T17:28:44.697Z,8.90
2022-11-24T17:31:23.522Z,8.90
2022-11-24T17:33:53.053Z,8.80
2022-11-24T17:36:20.447Z,9.00
2022-11-24T17:38:49.550Z,8.70
2022-11-24T17:41:17.936Z,8.60
2022-11-24T17:43:53.253Z,8.60
2022-11-24T17:46:20.529Z,8.50
2022-11-24T17:48:47.776Z,8.50
2022-11-24T17:51:21.736Z,8.70
2022-11-24T17:53:51.946Z,8.50
2022-11-24T17:56:25.710Z,8.40
2022-11-24T17:58:58.384Z,8.40
2022-11-24T18:01:28.779Z,8.40
2022-11-24T18:03:56.168Z,8.40
2022-11-24T18:06:27.847Z,8.40
2022-11-24T18:08:57.606Z,8.40
2022-11-24T18:11:31.803Z,8.40
2022-11-24T18:14:02.540Z,8.40
2022-11-24T18:16:32.316Z,8.40
2022-11-24T18:19:10.419Z,8.40
2022-11-24T18:21:40.412Z,8.30
2022-11-24T18:24:09.700Z,8.30
2022-11-24T18:26:37.269Z,8.30
2022-11-24T18:29:04.666Z,8.30
2022-11-24T18:31:34.409Z,8.40
2022-11-24T18:34:02.085Z,8.30
2022-11-24T18:36:30.821Z,8.40
2022-11-24T18:39:02.627Z,8.40
2022-11-24T18:41:29.599Z,8.40
2022-11-24T18:43:56.495Z,8.40
2022-11-24T18:46:23.828Z,8.40
2022-11-24T18:48:52.958Z,8.40
2022-11-24T18:51:20.218Z,8.40
2022-11-24T18:53:51.982Z,8.50
2022-11-24T18:56:18.972Z,8.40
2022-11-24T18:58:46.113Z,8.40
2022-11-24T19:01:18.419Z,8.50
2022-11-24T19:03:50.821Z,8.50
2022-11-24T19:06:21.323Z,8.50
2022-11-24T19:08:48.930Z,8.50
2022-11-24T19:11:32.700Z,8.40
2022-11-24T19:14:00.895Z,8.50
2022-11-24T19:16:28.238Z,8.40
2022-11-24T19:19:03.163Z,8.40
2022-11-24T19:21:40.054Z,8.40
2022-11-24T19:24:13.253Z,8.30
2022-11-24T19:26:40.710Z,8.30
2022-11-24T19:29:08.651Z,8.20
2022-11-24T19:31:38.497Z,8.30
2022-11-24T19:34:07.849Z,8.20
2022-11-24T19:36:34.878Z,8.20
2022-11-24T19:39:05.251Z,8.10
2022-11-24T19:41:33.373Z,8.10
2022-11-24T19:44:03.209Z,8.00
2022-11-24T19:46:30.558Z,8.00
2022-11-24T19:49:01.307Z,7.90
2022-11-24T19:51:38.526Z,7.90
2022-11-24T19:54:08.132Z,8.00
2022-11-24T19:56:37.246Z,7.80
2022-11-24T19:59:06.190Z,7.80
2022-11-24T20:01:39.898Z,7.80
2022-11-24T20:04:13.831Z,7.80
2022-11-24T20:06:44.258Z,7.80
2022-11-24T20:09:14.663Z,7.70
2022-11-24T20:11:42.055Z,7.90
2022-11-24T20:14:12.604Z,8.00
2022-11-24T20:16:39.802Z,7.80
2022-11-24T20:19:11.767Z,7.80
2022-11-24T20:21:40.142Z,7.80
2022-11-24T20:24:24.749Z,7.80
2022-11-24T20:26:58.325Z,7.80
2022-11-24T20:29:25.865Z,7.80
2022-11-24T20:31:55.082Z,7.80
2022-11-24T20:34:23.703Z,7.80
2022-11-24T20:36:52.715Z,7.70
2022-11-24T20:39:26.576Z,7.80
2022-11-24T20:41:55.653Z,7.80
2022-11-24T20:44:26.479Z,7.80
2022-11-24T20:46:55.829Z,7.80
2022-11-24T20:49:23.192Z,7.80
2022-11-24T20:51:54.625Z,7.80
2022-11-24T20:54:22.346Z,7.70
2022-11-24T20:56:49.529Z,7.70
2022-11-24T20:59:22.161Z,7.70
2022-11-24T21:01:50.776Z,7.60
2022-11-24T21:04:22.661Z,7.60
2022-11-24T21:06:50.264Z,7.60
2022-11-24T21:09:17.422Z,7.70
2022-11-24T21:11:44.997Z,7.60
2022-11-24T21:14:12.689Z,7.50
2022-11-24T21:16:41.978Z,7.50
2022-11-24T21:19:14.740Z,7.50
2022-11-24T21:21:42.720Z,7.50
2022-11-24T21:24:19.107Z,7.50
2022-11-24T21:26:51.638Z,7.50
2022-11-24T21:29:22.243Z,7.50
2022-11-24T21:31:49.596Z,7.50
2022-11-24T21:34:18.568Z,7.60
2022-11-24T21:36:46.596Z,7.50
2022-11-24T21:39:16.410Z,7.50
2022-11-24T21:41:44.001Z,7.50
2022-11-24T21:44:12.938Z,7.50
2022-11-24T21:46:45.940Z,7.40
2022-11-24T21:49:18.395Z,7.40
2022-11-24T21:51:45.266Z,7.40
2022-11-24T21:54:12.264Z,7.40
2022-11-24T21:56:39.185Z,7.40
2022-11-24T21:59:08.763Z,7.40
2022-11-24T22:01:35.680Z,7.40
2022-11-24T22:04:03.120Z,7.40
2022-11-24T22:06:31.977Z,7.40
2022-11-24T22:08:59.070Z,7.30
2022-11-24T22:11:27.001Z,7.40
2022-11-24T22:13:54.170Z,7.40
2022-11-24T22:16:23.571Z,7.40
2022-11-24T22:18:51.447Z,7.30
2022-11-24T22:21:29.860Z,7.40
2022-11-24T22:23:57.158Z,7.40
2022-11-24T22:26:24.330Z,7.40
2022-11-24T22:28:52.867Z,7.40
2022-11-24T22:31:23.262Z,7.40
2022-11-24T22:33:51.442Z,7.40
2022-11-24T22:36:23.805Z,7.50
2022-11-24T22:38:59.352Z,7.50
2022-11-24T22:41:26.538Z,7.50
2022-11-24T22:43:54.205Z,7.50
2022-11-24T22:46:25.330Z,7.60
2022-11-24T22:48:54.618Z,7.60
2022-11-24T22:51:28.335Z,7.60
2022-11-24T22:53:58.551Z,7.60
2022-11-24T22:56:27.843Z,7.60
2022-11-24T22:58:54.817Z,7.70
2022-11-24T23:01:24.745Z,7.70
2022-11-24T23:03:55.466Z,7.70
2022-11-24T23:06:26.451Z,7.80
2022-11-24T23:08:53.759Z,7.80
2022-11-24T23:11:36.391Z,7.80
2022-11-24T23:14:11.023Z,7.80
2022-11-24T23:16:38.157Z,7.90
2022-11-24T23:19:05.233Z,7.90
2022-11-24T23:21:35.250Z,7.90
2022-11-24T23:24:04.523Z,8.00
2022-11-24T23:26:38.165Z,8.00
2022-11-24T23:29:06.735Z,8.00
2022-11-24T23:31:34.059Z,8.00
2022-11-24T23:34:03.537Z,8.00
2022-11-24T23:36:32.046Z,8.00
2022-11-24T23:39:13.144Z,8.10
2022-11-24T23:41:40.676Z,8.10
2022-11-24T23:44:07.818Z,8.10
2022-11-24T23:46:35.194Z,8.20
2022-11-24T23:49:03.210Z,8.10
2022-11-24T23:51:32.840Z,8.20
2022-11-24T23:54:00.987Z,8.20
2022-11-24T23:56:33.434Z,8.20
2022-11-24T23:59:02.097Z,8.20
